• Join FlightAware (Why Join?)
  • Login
  • US Flag 
09:28AM EST


 

Airport Tracker/Info


-or-


 

Live Flight TrackerFlight Track Log ✈ SWA378 ✈ 06-May-2013 ✈ KBWI - KALB

Flight Track Log - Related Links

Times and Time Zones

All times are in EDT time to prevent confusion due to time zone crossing. See the SWA378 flight status page for this flight to view local times or setup timezone preferences in your user account.

Time Position Orientation Groundspeed Altitude Reporting Facility
EDT Latitude Longitude Course Direction KTS MPH feet Rate Location/Type
10:26PM 39.0764 -76.5436 71° East 253 291 6,700  Level Washington Center
10:27PM 39.1000 -76.4528 71° East 220 253 9,800 2,508 Climbing Washington Center
10:28PM 39.1236 -76.3489 74° East 263 303 11,800 2,746 Climbing Washington Center
10:29PM 39.1492 -76.2286 75° East 292 336 15,200 3,025 Climbing Washington Center
10:30PM 39.1667 -76.1003 80° East 339 390 17,800 2,650 Climbing Washington Center
10:31PM 39.1836 -75.9611 81° East 372 428 20,500 2,826 Climbing Washington Center
10:32PM 39.2236 -75.8328 68° East 383 441 23,500 2,750 Climbing Washington Center
10:33PM 39.3092 -75.7283 43° Northeast 383 441 26,000 2,450 Climbing Washington Center
10:34PM 39.3928 -75.6211 45° Northeast 399 459 28,400 1,475 Climbing Washington Center
10:35PM 39.4781 -75.5136 44° Northeast 412 474 29,000 151 Climbing Washington Center
10:37PM 39.5949 -75.3530 47° Northeast  Level FlightAware Approximate
10:38PM 39.7461 -75.1517 47° Northeast 457 526 29,000  Level Washington Center
10:39PM 39.8214 -75.0414 48° Northeast 467 537 29,000  Level New York Center
10:40PM 39.9094 -74.9167 47° Northeast 456 525 29,000  Level New York Center
10:41PM 40.0092 -74.8033 41° Northeast 456 525 29,000  Level New York Center
10:42PM 40.1047 -74.6897 42° Northeast 456 525 29,000  Level New York Center
10:43PM 40.1981 -74.5808 42° Northeast 456 525 29,000  Level New York Center
10:44PM 40.2933 -74.4636 43° Northeast 461 531 29,000  Level New York Center
10:45PM 40.3867 -74.3486 43° Northeast 461 531 29,000  Level New York Center
10:46PM 40.4817 -74.2336 43° Northeast 461 531 29,000 -375 Level New York Center
10:48PM 40.6469 -74.0292 43° Northeast 455 524 27,900 -1,371 Descending Boston Center
10:49PM 40.7506 -73.9139 40° Northeast 450 518 25,000 -1,950 Descending Boston Center
10:50PM 40.8394 -73.8064 42° Northeast 445 512 24,000 -650 Descending Boston Center
10:51PM 40.9369 -73.6792 45° Northeast 445 512 23,700 -550 Descending Boston Center
10:52PM 41.0456 -73.6372 16° North 445 512 22,900 -400 Descending Boston Center
10:53PM 41.1706 -73.6478 356° North 416 479 22,900 -1,050 Level Boston Center
10:54PM 41.2956 -73.6586 356° North 430 495 20,800 -1,450 Descending Boston Center
10:55PM 41.3933 -73.6658 357° North 430 495 20,000 -400 Descending Boston Center
10:56PM 41.5411 -73.6853 354° North 425 489 20,000  Level Boston Center
10:57PM 41.6578 -73.6961 356° North 420 483 20,000 -250 Level Boston Center
10:58PM 41.7431 -73.7006 358° North 420 483 19,500 -1,050 Descending Boston Center
10:59PM 41.8931 -73.7203 354° North 420 483 17,900 -2,177 Descending Boston Center
11:00PM 42.0097 -73.7281 357° North 403 464 15,000 -2,688 Descending Boston Center
11:01PM 42.1178 -73.7389 356° North 392 451 12,300 -1,967 Descending Boston Center
11:02PM 42.2261 -73.7550 354° North 360 414 11,000 -992 Descending Boston Center
11:03PM 42.3136 -73.7483 North 296 341 10,300 -1,190 Descending Boston Center
11:04PM 42.3972 -73.7389 North 294 338 8,600 -1,488 Descending Boston Center
11:05PM 42.4786 -73.7294 North 299 344 7,300 -1,323 Descending Boston Center
11:06PM 42.5600 -73.7142 North 275 316 5,800 -1,453 Descending Boston Center
11:07PM 42.6414 -73.7131 North 269 310 4,200 -1,537 Descending Boston Center
11:08PM 42.7183 -73.7203 356° North 282 325 2,700 -1,091 Descending Boston Center
11:09PM 42.7933 -73.7217 359° North 260 299 2,000 -347 Descending Boston Center
11:10PM 42.8408 -73.7511 336° Northwest 199 229 2,000 -298 Level Boston Center
11:11PM 42.8153 -73.7986 234° Southwest 138 159 1,400 -609 Descending Boston Center
11:12PM 42.7778 -73.8092 192° South 116 133 700 -627 Descending Boston Center